createdAt,value
2022-12-17T00:00:50.319Z,101971.25
2022-12-17T00:03:35.920Z,101971.53
2022-12-17T00:06:21.204Z,101980.19
2022-12-17T00:09:06.380Z,101983.63
2022-12-17T00:11:51.504Z,101991.94
2022-12-17T00:14:41.518Z,101986.50
2022-12-17T00:17:26.549Z,101995.31
2022-12-17T00:20:11.304Z,101994.03
2022-12-17T00:22:55.974Z,101998.75
2022-12-17T00:25:42.660Z,101987.06
2022-12-17T00:28:31.000Z,101997.38
2022-12-17T00:31:16.091Z,101988.63
2022-12-17T00:34:01.096Z,101989.63
2022-12-17T00:36:45.964Z,101994.25
2022-12-17T00:39:30.908Z,101998.16
2022-12-17T00:42:15.966Z,102005.84
2022-12-17T00:45:01.002Z,101998.38
2022-12-17T00:47:46.152Z,102005.03
2022-12-17T00:50:31.271Z,102006.03
2022-12-17T00:53:16.266Z,102013.81
2022-12-17T00:56:08.834Z,102028.03
2022-12-17T00:58:54.251Z,102032.56
2022-12-17T01:01:39.479Z,102021.69
2022-12-17T01:04:24.966Z,102030.91
2022-12-17T01:07:10.000Z,102036.25
2022-12-17T01:09:55.243Z,102037.31
2022-12-17T01:12:41.077Z,102026.22
2022-12-17T01:15:26.346Z,102032.56
2022-12-17T01:18:11.367Z,102027.66
2022-12-17T01:20:56.127Z,102023.97
2022-12-17T01:23:41.496Z,102037.19
2022-12-17T01:26:34.243Z,102032.28
2022-12-17T01:29:19.166Z,102034.19
2022-12-17T01:32:04.367Z,102032.59
2022-12-17T01:34:49.528Z,102037.31
2022-12-17T01:37:34.300Z,102044.00
2022-12-17T01:40:19.453Z,102054.50
2022-12-17T01:43:05.037Z,102052.41
2022-12-17T01:46:08.441Z,102061.94
2022-12-17T01:49:03.136Z,102059.69
2022-12-17T01:51:49.799Z,102067.03
2022-12-17T01:54:35.877Z,102073.31
2022-12-17T01:57:21.434Z,102077.00
2022-12-17T02:00:15.560Z,102061.41
2022-12-17T02:03:01.324Z,102072.63
2022-12-17T02:05:52.042Z,102073.69
2022-12-17T02:09:03.331Z,102068.53
2022-12-17T02:12:20.318Z,102083.03
2022-12-17T02:15:12.017Z,102073.97
2022-12-17T02:18:04.696Z,102070.88
2022-12-17T02:20:58.442Z,102068.59
2022-12-17T02:24:07.986Z,102065.19
2022-12-17T02:27:15.547Z,102066.50
2022-12-17T02:30:02.682Z,102069.59
2022-12-17T02:32:48.244Z,102069.38
2022-12-17T02:35:48.091Z,102070.94
2022-12-17T02:38:41.492Z,102066.31
2022-12-17T02:41:29.202Z,102069.91
2022-12-17T02:44:15.010Z,102073.59
2022-12-17T02:47:00.659Z,102074.88
2022-12-17T02:49:45.679Z,102078.00
2022-12-17T02:52:34.900Z,102075.13
2022-12-17T02:55:20.746Z,102080.84
2022-12-17T02:58:05.876Z,102088.91
2022-12-17T03:00:50.678Z,102095.41
2022-12-17T03:03:36.405Z,102093.50
2022-12-17T03:06:21.838Z,102104.44
2022-12-17T03:09:06.940Z,102097.94
2022-12-17T03:11:51.850Z,102104.19
2022-12-17T03:14:36.964Z,102097.47
2022-12-17T03:17:21.761Z,102102.22
2022-12-17T03:20:06.765Z,102104.03
2022-12-17T03:22:51.794Z,102103.25
2022-12-17T03:25:36.862Z,102107.91
2022-12-17T03:28:27.185Z,102114.19
2022-12-17T03:31:12.328Z,102110.00
2022-12-17T03:33:57.444Z,102116.97
2022-12-17T03:36:42.526Z,102116.47
2022-12-17T03:39:27.229Z,102102.94
2022-12-17T03:42:12.136Z,102094.94
2022-12-17T03:44:57.159Z,102105.34
2022-12-17T03:47:42.250Z,102098.59
2022-12-17T03:50:27.403Z,102102.22
2022-12-17T03:53:12.415Z,102095.72
2022-12-17T03:55:57.268Z,102106.59
2022-12-17T03:58:42.447Z,102103.50
2022-12-17T04:01:27.722Z,102097.50
2022-12-17T04:04:12.653Z,102096.00
2022-12-17T04:07:11.273Z,102107.66
2022-12-17T04:09:56.069Z,102114.75
2022-12-17T04:12:41.299Z,102124.63
2022-12-17T04:15:26.945Z,102120.97
2022-12-17T04:18:11.804Z,102131.91
2022-12-17T04:20:56.827Z,102124.66
2022-12-17T04:23:42.089Z,102115.28
2022-12-17T04:26:26.955Z,102123.56
2022-12-17T04:29:11.736Z,102133.97
2022-12-17T04:31:56.690Z,102129.03
2022-12-17T04:34:41.458Z,102128.75
2022-12-17T04:37:26.496Z,102129.03
2022-12-17T04:40:11.649Z,102132.41
2022-12-17T04:42:56.752Z,102135.00
2022-12-17T04:45:41.860Z,102128.81
2022-12-17T04:48:27.952Z,102138.66
2022-12-17T04:51:13.334Z,102138.94
2022-12-17T04:53:58.000Z,102140.75
2022-12-17T04:56:44.103Z,102131.69
2022-12-17T04:59:29.246Z,102131.13
2022-12-17T05:02:14.398Z,102133.22
2022-12-17T05:04:59.640Z,102139.72
2022-12-17T05:07:44.575Z,102150.88
2022-12-17T05:10:29.578Z,102150.13
2022-12-17T05:13:19.199Z,102147.75
2022-12-17T05:16:04.708Z,102142.03
2022-12-17T05:18:50.079Z,102142.31
2022-12-17T05:21:35.751Z,102141.81
2022-12-17T05:24:20.856Z,102140.22
2022-12-17T05:27:06.493Z,102140.44
2022-12-17T05:29:51.552Z,102145.38
2022-12-17T05:32:36.545Z,102143.84
2022-12-17T05:35:21.248Z,102154.50
2022-12-17T05:38:05.993Z,102158.38
2022-12-17T05:40:51.110Z,102151.88
2022-12-17T05:43:36.311Z,102160.72
2022-12-17T05:46:21.866Z,102160.44
2022-12-17T05:49:06.926Z,102163.06
2022-12-17T05:51:51.944Z,102172.94
2022-12-17T05:54:36.901Z,102176.03
2022-12-17T05:57:22.013Z,102176.00
2022-12-17T06:00:07.117Z,102171.81
2022-12-17T06:02:52.295Z,102165.84
2022-12-17T06:05:37.593Z,102162.97
2022-12-17T06:08:26.593Z,102176.50
2022-12-17T06:11:12.091Z,102185.13
2022-12-17T06:13:57.264Z,102180.72
2022-12-17T06:16:42.131Z,102186.44
2022-12-17T06:19:26.952Z,102189.03
2022-12-17T06:22:12.148Z,102189.31
2022-12-17T06:24:57.276Z,102200.22
2022-12-17T06:27:42.241Z,102207.72
2022-12-17T06:30:27.896Z,102210.34
2022-12-17T06:33:25.535Z,102213.72
2022-12-17T06:36:18.121Z,102225.97
2022-12-17T06:39:06.471Z,102210.91
2022-12-17T06:41:51.509Z,102224.19
2022-12-17T06:44:37.361Z,102221.56
2022-12-17T06:47:22.370Z,102218.44
2022-12-17T06:50:07.207Z,102218.69
2022-12-17T06:52:51.997Z,102221.31
2022-12-17T06:55:37.134Z,102227.03
2022-12-17T06:58:21.950Z,102232.00
2022-12-17T07:01:07.137Z,102238.75
2022-12-17T07:03:52.132Z,102236.91
2022-12-17T07:06:37.071Z,102243.16
2022-12-17T07:09:22.177Z,102252.03
2022-12-17T07:12:07.008Z,102252.03
2022-12-17T07:14:52.189Z,102259.56
2022-12-17T07:17:37.439Z,102265.28
2022-12-17T07:20:22.658Z,102262.72
2022-12-17T07:23:07.761Z,102268.41
2022-12-17T07:25:52.881Z,102272.31
2022-12-17T07:28:38.948Z,102267.69
2022-12-17T07:31:23.948Z,102286.94
2022-12-17T07:34:09.210Z,102293.19
2022-12-17T07:36:55.079Z,102294.47
2022-12-17T07:39:39.979Z,102299.94
2022-12-17T07:42:24.749Z,102301.00
2022-12-17T07:45:09.866Z,102301.47
2022-12-17T07:47:54.681Z,102299.38
2022-12-17T07:50:39.904Z,102303.28
2022-12-17T07:53:28.285Z,102311.06
2022-12-17T07:56:13.338Z,102312.31
2022-12-17T07:58:58.344Z,102312.34
2022-12-17T08:01:43.934Z,102325.09
2022-12-17T08:04:29.117Z,102317.03
2022-12-17T08:07:34.171Z,102320.59
2022-12-17T08:10:19.311Z,102328.63
2022-12-17T08:13:18.543Z,102330.69
2022-12-17T08:16:04.202Z,102338.22
2022-12-17T08:18:49.114Z,102340.09
2022-12-17T08:21:34.499Z,102341.34
2022-12-17T08:24:19.487Z,102341.66
2022-12-17T08:27:04.657Z,102349.22
2022-12-17T08:30:09.344Z,102356.00
2022-12-17T08:32:54.269Z,102357.28
2022-12-17T08:35:46.884Z,102360.69
2022-12-17T08:38:31.924Z,102367.97
2022-12-17T08:41:26.647Z,102369.03
2022-12-17T08:44:11.614Z,102369.81
2022-12-17T08:46:56.593Z,102370.59
2022-12-17T08:49:41.754Z,102373.34
2022-12-17T08:52:26.634Z,102378.84
2022-12-17T08:55:11.569Z,102375.13
2022-12-17T08:57:56.530Z,102383.13
2022-12-17T09:00:41.610Z,102378.59
2022-12-17T09:03:27.548Z,102388.81
2022-12-17T09:06:12.585Z,102394.81
2022-12-17T09:08:57.727Z,102390.06
2022-12-17T09:11:42.570Z,102394.19
2022-12-17T09:14:27.520Z,102402.31
2022-12-17T09:17:12.248Z,102401.28
2022-12-17T09:19:57.445Z,102398.47
2022-12-17T09:22:42.484Z,102395.34
2022-12-17T09:25:27.572Z,102390.09
2022-12-17T09:28:12.857Z,102397.31
2022-12-17T09:30:58.000Z,102406.31
2022-12-17T09:33:42.994Z,102411.25
2022-12-17T09:36:27.993Z,102403.88
2022-12-17T09:39:13.063Z,102412.00
2022-12-17T09:42:04.324Z,102407.94
2022-12-17T09:45:29.745Z,102413.91
2022-12-17T09:48:32.595Z,102413.72
2022-12-17T09:51:17.705Z,102399.44
2022-12-17T09:54:05.120Z,102400.59
2022-12-17T09:56:51.760Z,102406.41
2022-12-17T09:59:54.769Z,102409.34
2022-12-17T10:02:43.971Z,102412.59
2022-12-17T10:05:34.655Z,102411.81
2022-12-17T10:08:19.857Z,102402.78
2022-12-17T10:11:05.401Z,102407.59
2022-12-17T10:13:50.516Z,102406.88
2022-12-17T10:16:44.967Z,102422.81
2022-12-17T10:19:33.513Z,102418.09
2022-12-17T10:22:32.236Z,102419.50
2022-12-17T10:25:24.431Z,102422.53
2022-12-17T10:28:09.519Z,102419.69
2022-12-17T10:30:55.351Z,102416.31
2022-12-17T10:33:40.476Z,102409.81
2022-12-17T10:36:39.183Z,102414.25
2022-12-17T10:39:25.380Z,102418.50
2022-12-17T10:42:10.601Z,102418.84
2022-12-17T10:44:56.729Z,102414.84
2022-12-17T10:47:46.019Z,102415.94
2022-12-17T10:50:36.082Z,102424.38
2022-12-17T10:53:22.882Z,102422.34
2022-12-17T10:56:16.994Z,102408.66
2022-12-17T10:59:07.962Z,102419.25
2022-12-17T11:01:53.667Z,102426.88
2022-12-17T11:04:42.865Z,102432.19
2022-12-17T11:07:33.108Z,102426.38
2022-12-17T11:10:19.705Z,102430.69
2022-12-17T11:13:18.453Z,102426.94
2022-12-17T11:16:11.672Z,102435.22
2022-12-17T11:19:09.186Z,102426.84
2022-12-17T11:21:59.028Z,102436.09
2022-12-17T11:24:46.566Z,102446.91
2022-12-17T11:27:37.053Z,102444.00
2022-12-17T11:30:31.002Z,102448.19
2022-12-17T11:33:36.842Z,102448.00
2022-12-17T11:36:38.524Z,102441.47
2022-12-17T11:39:27.301Z,102436.63
2022-12-17T11:42:16.546Z,102434.28
2022-12-17T11:45:40.246Z,102438.59
2022-12-17T11:48:36.202Z,102440.34
2022-12-17T11:51:27.919Z,102435.16
2022-12-17T11:54:22.859Z,102430.41
2022-12-17T11:57:32.934Z,102425.53
2022-12-17T12:00:34.297Z,102437.22
2022-12-17T12:03:58.026Z,102446.53
2022-12-17T12:06:57.177Z,102444.41
2022-12-17T12:10:18.055Z,102438.19
2022-12-17T12:13:19.933Z,102446.53
2022-12-17T12:16:30.403Z,102444.91
2022-12-17T12:19:43.709Z,102443.03
2022-12-17T12:22:43.990Z,102445.75
2022-12-17T12:25:44.363Z,102453.16
2022-12-17T12:28:37.491Z,102458.75
2022-12-17T12:31:35.103Z,102454.97
2022-12-17T12:34:24.674Z,102455.25
2022-12-17T12:37:10.029Z,102452.53
2022-12-17T12:40:20.398Z,102455.47
2022-12-17T12:43:15.005Z,102450.00
2022-12-17T12:46:14.755Z,102457.38
2022-12-17T12:49:28.190Z,102461.59
2022-12-17T12:52:14.522Z,102457.22
2022-12-17T12:55:05.811Z,102461.84
2022-12-17T12:57:53.196Z,102459.19
2022-12-17T13:00:45.959Z,102455.63
2022-12-17T13:03:50.200Z,102449.53
2022-12-17T13:06:41.732Z,102460.94
2022-12-17T13:09:30.898Z,102456.41
2022-12-17T13:12:04.959Z,102461.38
2022-12-17T13:14:59.238Z,102458.16
2022-12-17T13:17:30.842Z,102454.06
2022-12-17T13:19:57.173Z,102461.75
2022-12-17T13:22:24.500Z,102460.00
2022-12-17T13:24:53.087Z,102467.19
2022-12-17T13:27:30.183Z,102454.28
2022-12-17T13:29:57.222Z,102442.75
2022-12-17T13:32:29.205Z,102457.38
2022-12-17T13:35:29.004Z,102451.84
2022-12-17T13:38:14.344Z,102458.34
2022-12-17T13:40:48.749Z,102457.16
2022-12-17T13:43:20.770Z,102457.59
2022-12-17T13:45:47.407Z,102457.84
2022-12-17T13:48:21.303Z,102462.53
2022-12-17T13:50:55.733Z,102448.66
2022-12-17T13:53:22.179Z,102467.84
2022-12-17T13:55:53.480Z,102464.34
2022-12-17T13:58:24.508Z,102460.09
2022-12-17T14:00:51.284Z,102465.44
2022-12-17T14:03:37.076Z,102460.84
2022-12-17T14:06:09.725Z,102457.19
2022-12-17T14:08:36.751Z,102465.13
2022-12-17T14:11:22.064Z,102467.19
2022-12-17T14:13:58.686Z,102458.63
2022-12-17T14:16:25.119Z,102456.16
2022-12-17T14:18:54.238Z,102469.53
2022-12-17T14:21:25.739Z,102462.88
2022-12-17T14:23:52.603Z,102465.63
2022-12-17T14:26:19.030Z,102461.38
2022-12-17T14:28:50.231Z,102457.19
2022-12-17T14:31:27.127Z,102460.84
2022-12-17T14:34:08.772Z,102468.38
2022-12-17T14:36:37.854Z,102471.69
2022-12-17T14:39:27.039Z,102462.44
2022-12-17T14:42:15.234Z,102469.44
2022-12-17T14:44:53.611Z,102479.41
2022-12-17T14:47:22.452Z,102485.41
2022-12-17T14:50:10.205Z,102482.22
2022-12-17T14:52:50.718Z,102479.31
2022-12-17T14:55:55.874Z,102480.88
2022-12-17T14:58:23.919Z,102488.41
2022-12-17T15:00:53.638Z,102476.38
2022-12-17T15:03:23.061Z,102479.38
2022-12-17T15:05:56.857Z,102478.28
2022-12-17T15:08:23.435Z,102482.06
2022-12-17T15:10:50.050Z,102476.53
2022-12-17T15:13:16.475Z,102487.94
2022-12-17T15:15:43.022Z,102484.56
2022-12-17T15:18:09.573Z,102480.34
2022-12-17T15:20:36.112Z,102481.41
2022-12-17T15:23:02.605Z,102483.50
2022-12-17T15:25:29.224Z,102490.19
2022-12-17T15:27:55.701Z,102491.81
2022-12-17T15:30:22.139Z,102492.31
2022-12-17T15:32:48.619Z,102496.47
2022-12-17T15:35:15.209Z,102488.47
2022-12-17T15:37:41.670Z,102494.88
2022-12-17T15:40:10.748Z,102484.25
2022-12-17T15:42:56.824Z,102481.94
2022-12-17T15:45:25.124Z,102479.06
2022-12-17T15:47:51.522Z,102481.94
2022-12-17T15:50:17.949Z,102480.50
2022-12-17T15:52:44.383Z,102477.94
2022-12-17T15:55:14.041Z,102487.41
2022-12-17T15:57:40.522Z,102496.84
2022-12-17T16:00:07.950Z,102504.16
2022-12-17T16:02:34.652Z,102500.31
2022-12-17T16:05:01.184Z,102496.69
2022-12-17T16:07:27.564Z,102516.84
2022-12-17T16:09:53.995Z,102509.56
2022-12-17T16:12:20.448Z,102510.06
2022-12-17T16:14:46.976Z,102514.31
2022-12-17T16:17:13.418Z,102516.16
2022-12-17T16:19:39.905Z,102521.94
2022-12-17T16:22:06.747Z,102511.34
2022-12-17T16:24:33.160Z,102523.91
2022-12-17T16:27:17.485Z,102517.75
2022-12-17T16:29:44.366Z,102523.03
2022-12-17T16:32:10.763Z,102519.66
2022-12-17T16:34:37.152Z,102519.66
2022-12-17T16:37:03.637Z,102524.09
2022-12-17T16:39:30.105Z,102524.09
2022-12-17T16:41:56.888Z,102529.28
2022-12-17T16:44:23.454Z,102523.56
2022-12-17T16:46:50.057Z,102515.69
2022-12-17T16:49:19.230Z,102531.41
2022-12-17T16:51:46.933Z,102531.31
2022-12-17T16:54:15.840Z,102529.69
2022-12-17T16:56:43.039Z,102546.81
2022-12-17T16:59:10.581Z,102531.66
2022-12-17T17:01:38.361Z,102534.28
2022-12-17T17:04:06.756Z,102527.03
2022-12-17T17:06:34.253Z,102530.97
2022-12-17T17:09:04.135Z,102530.13
2022-12-17T17:11:30.558Z,102529.69
2022-12-17T17:13:57.125Z,102537.00
2022-12-17T17:16:25.240Z,102539.63
2022-12-17T17:18:53.541Z,102546.94
2022-12-17T17:21:19.886Z,102547.81
2022-12-17T17:23:47.953Z,102548.66
2022-12-17T17:26:14.864Z,102552.38
2022-12-17T17:28:42.059Z,102550.56
2022-12-17T17:31:11.959Z,102551.38
2022-12-17T17:33:42.966Z,102545.69
2022-12-17T17:36:12.313Z,102549.16
2022-12-17T17:38:40.394Z,102542.97
2022-12-17T17:41:09.635Z,102546.38
2022-12-17T17:43:36.132Z,102543.50
2022-12-17T17:46:11.471Z,102550.00
2022-12-17T17:48:38.411Z,102545.88
2022-12-17T17:51:26.084Z,102548.50
2022-12-17T17:54:10.975Z,102548.97
2022-12-17T17:56:41.726Z,102550.03
2022-12-17T17:59:11.060Z,102559.94
2022-12-17T18:01:40.451Z,102567.69
2022-12-17T18:04:10.090Z,102569.78
2022-12-17T18:06:37.593Z,102570.75
2022-12-17T18:09:04.532Z,102566.13
2022-12-17T18:11:31.615Z,102568.16
2022-12-17T18:13:58.904Z,102576.75
2022-12-17T18:16:32.612Z,102583.78
2022-12-17T18:19:00.744Z,102576.97
2022-12-17T18:21:28.661Z,102580.69
2022-12-17T18:24:01.085Z,102573.94
2022-12-17T18:26:29.947Z,102578.13
2022-12-17T18:28:58.436Z,102591.69
2022-12-17T18:31:26.413Z,102587.22
2022-12-17T18:33:58.540Z,102584.88
2022-12-17T18:36:34.164Z,102589.56
2022-12-17T18:39:03.730Z,102583.28
2022-12-17T18:41:48.934Z,102578.56
2022-12-17T18:44:16.240Z,102571.78
2022-12-17T18:46:43.116Z,102580.63
2022-12-17T18:49:11.571Z,102577.50
2022-12-17T18:51:40.372Z,102575.97
2022-12-17T18:54:08.474Z,102568.63
2022-12-17T18:56:59.848Z,102572.47
2022-12-17T18:59:28.708Z,102588.84
2022-12-17T19:01:58.604Z,102587.28
2022-12-17T19:04:25.618Z,102597.94
2022-12-17T19:06:53.609Z,102588.31
2022-12-17T19:09:34.330Z,102597.16
2022-12-17T19:12:01.344Z,102599.25
2022-12-17T19:14:27.912Z,102601.31
2022-12-17T19:16:55.651Z,102601.31
2022-12-17T19:19:23.015Z,102600.81
2022-12-17T19:21:51.871Z,102597.16
2022-12-17T19:24:19.243Z,102601.78
2022-12-17T19:26:45.884Z,102607.19
2022-12-17T19:29:13.678Z,102592.31
2022-12-17T19:31:40.566Z,102596.50
2022-12-17T19:34:12.689Z,102610.56
2022-12-17T19:36:39.887Z,102600.72
2022-12-17T19:39:08.553Z,102611.63
2022-12-17T19:41:35.153Z,102609.00
2022-12-17T19:44:04.484Z,102600.94
2022-12-17T19:46:32.351Z,102601.97
2022-12-17T19:48:58.819Z,102609.00
2022-12-17T19:51:27.897Z,102605.56
2022-12-17T19:53:55.146Z,102613.38
2022-12-17T19:56:26.358Z,102615.44
2022-12-17T19:58:55.343Z,102620.06
2022-12-17T20:01:24.838Z,102625.97
2022-12-17T20:03:52.058Z,102625.47
2022-12-17T20:06:20.571Z,102630.38
2022-12-17T20:08:47.089Z,102629.06
2022-12-17T20:11:36.120Z,102631.50
2022-12-17T20:14:20.658Z,102635.84
2022-12-17T20:16:52.748Z,102626.41
2022-12-17T20:19:21.752Z,102621.94
2022-12-17T20:21:48.715Z,102623.19
2022-12-17T20:24:16.627Z,102635.16
2022-12-17T20:26:43.814Z,102637.59
2022-12-17T20:29:10.508Z,102642.31
2022-12-17T20:31:37.068Z,102638.06
2022-12-17T20:34:04.710Z,102643.72
2022-12-17T20:36:31.194Z,102642.34
2022-12-17T20:38:57.771Z,102643.69
2022-12-17T20:41:26.612Z,102646.94
2022-12-17T20:43:53.748Z,102644.59
2022-12-17T20:46:21.597Z,102645.41
2022-12-17T20:48:48.071Z,102637.44
2022-12-17T20:51:17.346Z,102641.84
2022-12-17T20:53:44.794Z,102647.09
2022-12-17T20:56:14.336Z,102646.25
2022-12-17T20:58:41.856Z,102640.00
2022-12-17T21:01:16.811Z,102649.50
2022-12-17T21:03:43.459Z,102647.72
2022-12-17T21:06:13.069Z,102655.63
2022-12-17T21:08:44.797Z,102649.50
2022-12-17T21:11:15.591Z,102661.47
2022-12-17T21:13:42.422Z,102655.72
2022-12-17T21:16:29.037Z,102649.97
2022-12-17T21:18:56.514Z,102657.31
2022-12-17T21:21:25.785Z,102655.63
2022-12-17T21:23:52.224Z,102648.06
2022-12-17T21:26:24.348Z,102641.09
2022-12-17T21:28:52.592Z,102651.19
2022-12-17T21:31:25.422Z,102651.09
2022-12-17T21:33:55.510Z,102649.78
2022-12-17T21:36:23.409Z,102655.47
2022-12-17T21:38:51.204Z,102668.47
2022-12-17T21:41:20.118Z,102664.75
2022-12-17T21:43:46.568Z,102678.63
2022-12-17T21:46:13.875Z,102674.38
2022-12-17T21:48:42.645Z,102669.78
2022-12-17T21:51:12.552Z,102669.75
2022-12-17T21:53:42.722Z,102675.94
2022-12-17T21:56:15.122Z,102660.44
2022-12-17T21:58:42.655Z,102671.78
2022-12-17T22:01:24.971Z,102666.69
2022-12-17T22:03:53.894Z,102673.94
2022-12-17T22:06:24.473Z,102677.53
2022-12-17T22:08:56.811Z,102680.06
2022-12-17T22:11:27.687Z,102680.31
2022-12-17T22:14:08.835Z,102672.66
2022-12-17T22:16:35.940Z,102666.84
2022-12-17T22:19:03.892Z,102669.72
2022-12-17T22:21:34.143Z,102674.25
2022-12-17T22:24:00.968Z,102672.19
2022-12-17T22:26:27.870Z,102672.44
2022-12-17T22:28:54.345Z,102663.06
2022-12-17T22:31:39.757Z,102681.13
2022-12-17T22:35:23.151Z,102677.53
2022-12-17T22:39:04.779Z,102681.09
2022-12-17T22:43:52.440Z,102675.88
2022-12-17T22:44:43.457Z,102681.00
2022-12-17T22:45:32.932Z,102682.44
2022-12-17T22:47:59.452Z,102682.94
2022-12-17T22:50:28.163Z,102681.00
2022-12-17T22:52:59.245Z,102681.78
2022-12-17T22:55:25.786Z,102682.38
2022-12-17T22:57:53.850Z,102676.28
2022-12-17T23:00:26.140Z,102679.31
2022-12-17T23:02:54.480Z,102678.53
2022-12-17T23:05:25.514Z,102678.28
2022-12-17T23:07:52.191Z,102675.94
2022-12-17T23:10:19.193Z,102669.03
2022-12-17T23:12:52.311Z,102672.34
2022-12-17T23:15:27.363Z,102669.19
2022-12-17T23:17:56.365Z,102672.22
2022-12-17T23:20:23.021Z,102669.09
2022-12-17T23:22:49.724Z,102665.47
2022-12-17T23:25:16.465Z,102662.63
2022-12-17T23:27:44.086Z,102671.06
2022-12-17T23:30:12.115Z,102665.16
2022-12-17T23:32:38.744Z,102671.13
2022-12-17T23:35:05.882Z,102666.41
2022-12-17T23:37:36.676Z,102675.28
2022-12-17T23:40:08.021Z,102680.75
2022-12-17T23:42:34.419Z,102684.13
2022-12-17T23:45:00.812Z,102687.81
2022-12-17T23:47:27.255Z,102678.88
2022-12-17T23:49:53.841Z,102691.91
2022-12-17T23:52:20.340Z,102701.19
2022-12-17T23:54:46.720Z,102703.31
2022-12-17T23:57:13.200Z,102703.53
2022-12-17T23:59:39.751Z,102701.13
